Página principal
METAR-TAF:

METAR-TAF

Aeroportos :

Duchambe, Tadjiquistão

latitude: 38-33N, longitude: 068-47E, altura: 803 m

Observação actual do tempo

O boletim foi feito há 29 minutos, às 00:30 UTC
Vento 2 kt de norte
Temperatura 16°C
Humidade 45%
Pressão 1016 hPa
Visibilidade 10 km ou mais

METAR: UTDD 200030Z 36001MPS 9999 NSC 16/04 Q1016 R09/CLRD// NOSIG RMK QFE694/0925

Hora: 05:59 (00:59 UTC)

Previsão

O boletim foi feito há 59 minutos, às 00:00 UTC
Previsão válida de 20 às 01 UTC a 20 às 13 UTC
Vento 4 kt com direcção variável
Visibilidade: 6000 m
Poucas nuvensa uma altura de 6600 ft, Cumulonimbus.
Nuvens dispersasa uma altura de 13000 ft
Temporariamente
de 20 às 08 UTC a 20 às 13 UTC
Vento 14 kt de oeste com rajadas de 23 kt
Visibilidade: 3000 m
bruma
Probabilidade 40% :
Temporariamente
de 20 às 09 UTC a 20 às 13 UTC
trovoada

TAF: UTDD 200000Z 2001/2013 VRB02MPS 6000 FEW066CB SCT130 TEMPO 2008/2013 27007G12MPS 3000 HZ PROB40 TEMPO 2009/2013 TS

Observações e previsões do tempo de mais de 4000 aeroportos (mensagens METAR e TAF).

As estações disponíveis são os pontos amarelos e vermelhos sobre o mapa.

Mova o rato sobre o mapa para ver o nome da estação.

Depois clique no ponto para visualizar as observações e previsões meteorológicas.

Para alterar o mapa : clique nos botões verdes com uma cruz preta para aumentar o zoom; no botão verde com uma pitada de zoom; ou nas setas verdes para mapas adjacentes.


METAR-TAF: